Time;durP1;ratioP1;P1;durP2;ratioP2;P2;SDS_P1;SDS_P2;PMS_P1;PMS_P2;Temp;Humidity;BMP_temperature;BMP_pressure;BME280_temperature;BME280_humidity;BME280_pressure;Samples;Min_cycle;Max_cycle;Signal;HPM_P1;HPM_P2
2022/06/08 00:01:12;;;;;;;0.85;0.60;;;15.40;99.90;;;;;;4992298;28;20050;-67
2022/06/08 00:03:50;;;;;;;0.82;0.50;;;15.40;99.90;;;;;;4986548;28;20114;-67
2022/06/08 00:06:17;;;;;;;0.60;0.60;;;15.40;99.90;;;;;;4985745;28;20126;-67
2022/06/08 00:08:43;;;;;;;1.10;0.90;;;15.40;99.90;;;;;;4997087;28;20074;-68
2022/06/08 00:11:10;;;;;;;1.23;0.60;;;15.30;99.90;;;;;;4990851;28;20435;-68
2022/06/08 00:13:37;;;;;;;0.90;0.50;;;15.20;99.90;;;;;;5003003;28;20145;-67
2022/06/08 00:16:05;;;;;;;1.00;0.60;;;15.20;99.90;;;;;;4999233;28;20168;-68
2022/06/08 00:18:31;;;;;;;0.77;0.50;;;15.10;99.90;;;;;;4985115;28;20061;-68
2022/06/08 00:20:58;;;;;;;0.57;0.50;;;15.10;99.90;;;;;;4988874;28;20054;-67
2022/06/08 00:23:25;;;;;;;0.40;0.40;;;15.10;99.90;;;;;;5003296;28;20137;-68
2022/06/08 00:25:51;;;;;;;0.82;0.43;;;15.10;99.90;;;;;;4967069;28;20168;-68
2022/06/08 00:28:18;;;;;;;0.40;0.40;;;15.10;99.90;;;;;;4991355;28;20062;-67
2022/06/08 00:30:45;;;;;;;0.40;0.40;;;15.00;99.90;;;;;;4965859;28;20104;-68
2022/06/08 00:33:12;;;;;;;0.52;0.40;;;15.10;99.90;;;;;;4989304;28;20406;-68
2022/06/08 00:35:38;;;;;;;1.13;0.38;;;15.10;99.90;;;;;;4965920;28;20082;-67
2022/06/08 00:38:05;;;;;;;0.43;0.35;;;15.00;99.90;;;;;;4970894;28;20294;-67
2022/06/08 00:41:11;;;;;;;0.32;0.32;;;15.10;99.90;;;;;;5001297;28;20100;-67
2022/06/08 00:43:38;;;;;;;0.28;0.28;;;15.10;99.90;;;;;;4959860;28;20128;-67
2022/06/08 00:46:05;;;;;;;0.60;0.40;;;15.10;99.90;;;;;;4961337;28;20050;-67
2022/06/08 00:48:38;;;;;;;0.40;0.40;;;15.00;99.90;;;;;;4958835;28;20080;-68
2022/06/08 00:51:05;;;;;;;0.43;0.40;;;15.00;99.90;;;;;;4971977;28;20156;-68
2022/06/08 00:53:40;;;;;;;0.70;0.50;;;15.00;99.90;;;;;;5001127;28;20089;-68
2022/06/08 00:56:11;;;;;;;0.20;0.20;;;15.00;99.90;;;;;;4983719;28;20050;-67
2022/06/08 00:58:38;;;;;;;0.90;0.40;;;15.00;99.90;;;;;;4973747;28;20054;-67
2022/06/08 01:01:04;;;;;;;0.47;0.32;;;15.00;99.90;;;;;;4977337;28;20116;-68
2022/06/08 01:03:31;;;;;;;0.30;0.20;;;15.00;99.90;;;;;;5000043;28;20484;-68
2022/06/08 01:06:02;;;;;;;0.30;0.30;;;15.00;99.90;;;;;;4993208;28;20131;-67
2022/06/08 01:08:45;;;;;;;0.38;0.38;;;15.10;99.90;;;;;;4975730;28;20096;-68
2022/06/08 01:11:39;;;;;;;0.47;0.30;;;15.00;99.90;;;;;;4988094;28;20169;-67
2022/06/08 01:14:10;;;;;;;0.35;0.30;;;15.10;99.90;;;;;;4982779;28;20062;-67
2022/06/08 01:16:39;;;;;;;0.57;0.35;;;15.10;99.90;;;;;;4966895;28;20490;-68
2022/06/08 01:19:06;;;;;;;0.57;0.32;;;15.00;99.90;;;;;;4966787;28;20064;-67
2022/06/08 01:21:33;;;;;;;0.28;0.28;;;15.00;99.90;;;;;;4963732;28;20133;-68
2022/06/08 01:24:02;;;;;;;0.70;0.50;;;15.00;99.90;;;;;;5001769;28;20522;-68
2022/06/08 01:26:54;;;;;;;2.53;0.70;;;15.00;99.90;;;;;;4984698;28;20092;-67
2022/06/08 01:29:29;;;;;;;0.63;0.40;;;15.00;99.90;;;;;;4958365;28;20580;-67
2022/06/08 01:32:03;;;;;;;0.90;0.60;;;15.00;99.90;;;;;;4981534;28;20085;-67
2022/06/08 01:34:30;;;;;;;1.10;0.40;;;15.00;99.90;;;;;;4996070;28;20152;-68
2022/06/08 01:37:16;;;;;;;0.88;0.52;;;15.00;99.90;;;;;;5000381;28;20405;-68
2022/06/08 01:39:45;;;;;;;0.85;0.50;;;15.00;99.90;;;;;;4983513;28;20085;-68
2022/06/08 01:42:32;;;;;;;0.60;0.50;;;15.00;99.90;;;;;;4999358;28;20092;-68
2022/06/08 01:45:28;;;;;;;0.68;0.43;;;15.00;99.90;;;;;;4984211;28;20445;-67
2022/06/08 01:48:36;;;;;;;1.20;0.70;;;15.00;99.90;;;;;;4977385;28;20174;-67
2022/06/08 01:51:21;;;;;;;0.38;0.38;;;15.00;99.90;;;;;;4927987;29;20123;-67
2022/06/08 01:54:11;;;;;;;0.52;0.30;;;15.00;99.90;;;;;;4926980;29;20056;-67
2022/06/08 01:56:44;;;;;;;0.47;0.30;;;15.00;99.90;;;;;;4944520;28;20433;-68
2022/06/08 01:59:20;;;;;;;0.20;0.20;;;14.90;99.90;;;;;;4970876;28;20080;-68
2022/06/08 02:02:24;;;;;;;0.20;0.20;;;15.00;99.90;;;;;;4997521;28;20130;-68
2022/06/08 02:05:09;;;;;;;0.20;0.20;;;15.00;99.90;;;;;;4982315;28;20477;-67
2022/06/08 02:07:49;;;;;;;0.25;0.25;;;15.00;99.90;;;;;;4982686;28;20081;-67
2022/06/08 02:10:34;;;;;;;0.60;0.40;;;15.00;99.90;;;;;;4983487;28;20093;-68
2022/06/08 02:13:06;;;;;;;0.20;0.20;;;14.90;99.90;;;;;;4989497;28;20518;-67
2022/06/08 02:15:41;;;;;;;0.20;0.20;;;14.90;99.90;;;;;;4973634;28;20099;-67
2022/06/08 02:18:14;;;;;;;0.40;0.20;;;14.90;99.90;;;;;;4990101;28;20056;-68
2022/06/08 02:20:50;;;;;;;0.20;0.20;;;14.90;99.90;;;;;;4979571;28;20130;-67
2022/06/08 02:23:21;;;;;;;0.20;0.20;;;14.90;99.90;;;;;;4936206;28;20101;-67
2022/06/08 02:25:53;;;;;;;0.10;0.10;;;14.90;99.90;;;;;;4966543;28;20082;-67
2022/06/08 02:28:28;;;;;;;0.40;0.30;;;14.80;99.90;;;;;;4965541;28;20150;-67
2022/06/08 02:31:00;;;;;;;0.63;0.20;;;14.80;99.90;;;;;;4955328;28;20206;-67
2022/06/08 02:36:25;;;;;;;0.52;0.35;;;14.80;99.90;;;;;;4960078;28;20051;-67
2022/06/08 02:39:09;;;;;;;0.10;0.10;;;14.90;99.90;;;;;;4959269;28;20047;-67
2022/06/08 02:41:36;;;;;;;0.20;0.20;;;14.80;99.90;;;;;;4951533;28;20105;-67
2022/06/08 02:44:05;;;;;;;0.22;0.10;;;14.80;99.90;;;;;;4962712;28;20497;-67
2022/06/08 02:46:35;;;;;;;0.10;0.10;;;14.80;99.90;;;;;;4949945;28;20054;-67
2022/06/08 02:49:06;;;;;;;0.20;0.20;;;14.80;99.90;;;;;;4967566;28;20054;-68
2022/06/08 02:51:33;;;;;;;0.20;0.20;;;14.80;99.90;;;;;;4934255;28;20093;-67
2022/06/08 02:54:04;;;;;;;0.30;0.20;;;14.80;99.90;;;;;;4949876;28;20119;-68
2022/06/08 02:56:47;;;;;;;0.10;0.10;;;14.80;99.90;;;;;;4942486;29;20119;-67
2022/06/08 02:59:37;;;;;;;0.20;0.20;;;14.90;99.90;;;;;;4946113;28;20047;-68
2022/06/08 03:02:12;;;;;;;0.30;0.10;;;14.90;99.90;;;;;;4909156;28;20127;-67
2022/06/08 03:05:00;;;;;;;0.10;0.10;;;14.90;99.90;;;;;;4960703;28;20093;-67
2022/06/08 03:07:32;;;;;;;0.40;0.20;;;14.90;99.90;;;;;;4966704;28;20469;-68
2022/06/08 03:09:59;;;;;;;0.20;0.20;;;15.00;99.90;;;;;;4967507;28;20082;-68
2022/06/08 03:12:31;;;;;;;0.40;0.20;;;15.00;99.90;;;;;;4960056;28;20051;-67
2022/06/08 03:14:59;;;;;;;0.25;0.20;;;15.00;99.90;;;;;;4928070;29;20138;-68
2022/06/08 03:17:27;;;;;;;0.25;0.25;;;15.00;99.90;;;;;;4953296;28;20135;-68
2022/06/08 03:19:54;;;;;;;0.47;0.40;;;15.00;99.90;;;;;;4965661;28;20085;-68
2022/06/08 03:22:21;;;;;;;0.10;0.10;;;15.00;99.90;;;;;;4957387;28;20078;-68
2022/06/08 03:24:47;;;;;;;0.10;0.10;;;15.10;99.90;;;;;;4964979;28;20133;-67
2022/06/08 03:27:14;;;;;;;0.10;0.10;;;15.10;99.90;;;;;;4965426;28;20489;-68
2022/06/08 03:29:41;;;;;;;0.10;0.10;;;15.10;99.90;;;;;;4950095;28;20673;-68
2022/06/08 03:32:08;;;;;;;0.20;0.10;;;15.10;99.90;;;;;;4951987;28;20064;-68
2022/06/08 03:34:34;;;;;;;0.20;0.20;;;15.20;99.90;;;;;;4965473;28;20182;-68
2022/06/08 03:37:01;;;;;;;0.00;0.00;;;15.20;99.90;;;;;;4965819;28;20475;-68
2022/06/08 03:39:28;;;;;;;0.25;0.10;;;15.20;99.90;;;;;;4956238;28;20071;-67
2022/06/08 03:41:55;;;;;;;0.10;0.10;;;15.20;99.90;;;;;;4949403;28;20513;-68
2022/06/08 03:44:21;;;;;;;0.05;0.05;;;15.20;99.90;;;;;;4966232;28;20534;-68
2022/06/08 03:47:08;;;;;;;0.10;0.10;;;15.20;99.90;;;;;;4965702;28;20051;-68
2022/06/08 03:49:35;;;;;;;0.10;0.10;;;15.20;99.90;;;;;;4966259;28;20081;-67
2022/06/08 03:52:03;;;;;;;0.10;0.10;;;15.20;99.90;;;;;;4946158;28;20105;-68
2022/06/08 03:54:33;;;;;;;0.10;0.10;;;15.20;99.90;;;;;;4958221;28;20130;-68
2022/06/08 03:57:03;;;;;;;0.10;0.10;;;15.20;99.90;;;;;;4963596;28;20229;-68
2022/06/08 03:59:31;;;;;;;0.10;0.10;;;15.30;99.90;;;;;;4960530;28;20055;-68
2022/06/08 04:01:57;;;;;;;0.10;0.10;;;15.30;99.90;;;;;;4936169;28;20490;-68
2022/06/08 04:04:24;;;;;;;0.10;0.10;;;15.30;99.90;;;;;;4962018;28;20046;-67
2022/06/08 04:06:51;;;;;;;0.30;0.20;;;15.40;99.90;;;;;;4964773;28;20093;-68
2022/06/08 04:09:17;;;;;;;0.10;0.10;;;15.40;99.90;;;;;;4960140;28;20137;-68
2022/06/08 04:11:44;;;;;;;0.10;0.10;;;15.40;99.90;;;;;;4929269;29;20538;-67
2022/06/08 04:14:11;;;;;;;0.28;0.28;;;15.40;99.90;;;;;;4955527;28;20134;-67
2022/06/08 04:16:38;;;;;;;0.35;0.20;;;15.50;99.90;;;;;;4947501;29;20138;-68
2022/06/08 04:19:04;;;;;;;0.10;0.10;;;15.50;99.90;;;;;;4947307;28;20054;-68
2022/06/08 04:21:31;;;;;;;0.17;0.17;;;15.50;99.90;;;;;;4948936;28;20150;-68
2022/06/08 04:24:00;;;;;;;0.20;0.20;;;15.60;99.90;;;;;;4948385;28;20083;-68
2022/06/08 04:26:27;;;;;;;0.43;0.25;;;15.60;99.90;;;;;;4960110;28;20074;-68
2022/06/08 04:28:54;;;;;;;0.10;0.10;;;15.60;99.90;;;;;;4954842;28;20078;-68
2022/06/08 04:31:21;;;;;;;0.10;0.10;;;15.60;99.90;;;;;;4946277;28;20094;-68
2022/06/08 04:33:48;;;;;;;0.30;0.20;;;15.70;99.90;;;;;;4961709;28;20406;-69
2022/06/08 04:36:16;;;;;;;0.20;0.20;;;15.70;99.90;;;;;;4965859;28;20118;-67
2022/06/08 04:38:42;;;;;;;0.20;0.20;;;15.70;99.90;;;;;;4952158;28;20129;-68
2022/06/08 04:41:09;;;;;;;0.20;0.20;;;15.70;99.90;;;;;;4964740;28;20051;-67
2022/06/08 04:43:36;;;;;;;0.43;0.30;;;15.70;99.90;;;;;;4954491;28;20129;-68
2022/06/08 04:46:03;;;;;;;0.20;0.20;;;15.70;99.90;;;;;;4948457;28;20137;-67
2022/06/08 04:48:30;;;;;;;0.60;0.40;;;15.70;99.90;;;;;;4958479;28;20048;-67
2022/06/08 04:50:57;;;;;;;0.90;0.50;;;15.70;99.90;;;;;;4953468;28;20140;-69
2022/06/08 04:53:23;;;;;;;0.30;0.30;;;15.70;99.90;;;;;;4961903;28;20141;-67
2022/06/08 04:55:50;;;;;;;0.30;0.30;;;15.70;99.90;;;;;;4964431;28;20075;-67
2022/06/08 04:58:20;;;;;;;0.22;0.22;;;15.80;99.90;;;;;;4954439;28;20173;-67
2022/06/08 05:00:47;;;;;;;0.30;0.30;;;15.80;99.90;;;;;;4944986;28;20175;-67
2022/06/08 05:03:14;;;;;;;0.20;0.20;;;15.80;99.90;;;;;;4956086;28;20134;-68
2022/06/08 05:05:41;;;;;;;0.30;0.30;;;15.80;99.90;;;;;;4959439;28;20055;-67
2022/06/08 05:08:08;;;;;;;0.20;0.20;;;15.90;99.90;;;;;;4953654;28;20142;-67
2022/06/08 05:10:35;;;;;;;0.30;0.20;;;15.90;99.90;;;;;;4959224;28;20127;-67
2022/06/08 05:13:02;;;;;;;0.20;0.20;;;16.00;99.90;;;;;;4945896;28;20506;-67
2022/06/08 05:15:30;;;;;;;0.20;0.20;;;16.00;99.90;;;;;;4921522;28;20058;-67
2022/06/08 05:17:57;;;;;;;0.20;0.20;;;16.00;99.90;;;;;;4950752;28;20194;-67
2022/06/08 05:20:24;;;;;;;0.20;0.20;;;16.00;99.90;;;;;;4957128;28;20142;-67
2022/06/08 05:22:51;;;;;;;0.30;0.30;;;16.10;99.90;;;;;;4993542;28;20115;-68
2022/06/08 05:25:24;;;;;;;0.28;0.28;;;16.10;99.90;;;;;;4985226;28;20129;-68
2022/06/08 05:27:51;;;;;;;0.20;0.20;;;16.10;99.90;;;;;;5002252;28;20133;-68
2022/06/08 05:30:17;;;;;;;0.40;0.40;;;16.10;99.90;;;;;;4975211;28;20145;-68
2022/06/08 05:32:44;;;;;;;0.30;0.30;;;16.20;99.90;;;;;;4993193;28;20145;-70
2022/06/08 05:35:11;;;;;;;0.35;0.32;;;16.10;99.90;;;;;;4994441;28;20129;-68
2022/06/08 05:37:38;;;;;;;0.47;0.32;;;16.10;99.90;;;;;;4995453;28;20060;-67
2022/06/08 05:40:05;;;;;;;0.30;0.30;;;16.10;99.90;;;;;;4957302;28;20484;-68
2022/06/08 05:42:32;;;;;;;0.68;0.40;;;16.10;99.90;;;;;;4995017;28;20514;-68
2022/06/08 05:45:03;;;;;;;0.30;0.30;;;16.20;99.90;;;;;;4991957;28;20244;-68
2022/06/08 05:47:29;;;;;;;0.43;0.40;;;16.10;99.90;;;;;;4993645;28;20142;-67
2022/06/08 05:49:56;;;;;;;0.30;0.30;;;16.10;99.90;;;;;;4992578;28;20124;-67
2022/06/08 05:52:23;;;;;;;0.40;0.40;;;16.10;99.90;;;;;;4980163;28;20108;-67
2022/06/08 05:54:51;;;;;;;0.40;0.40;;;16.10;99.90;;;;;;4979240;28;20080;-67
2022/06/08 05:57:17;;;;;;;0.30;0.30;;;16.10;99.90;;;;;;4995743;28;20077;-67
2022/06/08 05:59:44;;;;;;;0.63;0.45;;;16.10;99.90;;;;;;4997463;28;20129;-67
2022/06/08 06:02:12;;;;;;;0.40;0.40;;;16.00;99.90;;;;;;4996678;28;20164;-67
2022/06/08 06:04:39;;;;;;;0.40;0.38;;;16.00;99.90;;;;;;4978205;28;20054;-67
2022/06/08 06:07:06;;;;;;;0.40;0.40;;;16.00;99.90;;;;;;4996760;28;20045;-67
2022/06/08 06:09:32;;;;;;;0.50;0.50;;;16.10;99.90;;;;;;4996093;28;20556;-68
2022/06/08 06:11:59;;;;;;;0.90;0.80;;;16.10;99.90;;;;;;4998511;28;20444;-67
2022/06/08 06:14:26;;;;;;;0.88;0.77;;;16.10;99.90;;;;;;4994703;28;20046;-67
2022/06/08 06:16:53;;;;;;;0.57;0.50;;;16.20;99.90;;;;;;4992714;28;20258;-67
2022/06/08 06:19:20;;;;;;;0.50;0.50;;;16.30;99.90;;;;;;4973311;28;20391;-67
2022/06/08 06:21:47;;;;;;;0.50;0.50;;;16.40;99.90;;;;;;4968748;28;20105;-67
2022/06/08 06:24:14;;;;;;;0.60;0.60;;;16.50;99.90;;;;;;4959726;28;20499;-68
2022/06/08 06:26:42;;;;;;;0.88;0.43;;;16.60;99.90;;;;;;4961756;28;20057;-68
2022/06/08 06:29:10;;;;;;;0.60;0.50;;;16.60;99.90;;;;;;4963858;28;20610;-68
2022/06/08 06:31:42;;;;;;;1.10;0.65;;;16.60;99.90;;;;;;4964110;28;20118;-68
2022/06/08 06:34:11;;;;;;;0.70;0.63;;;16.70;99.90;;;;;;4961430;28;20066;-68
2022/06/08 06:36:38;;;;;;;0.65;0.60;;;16.70;99.90;;;;;;4963107;28;20127;-68
2022/06/08 06:39:05;;;;;;;0.95;0.70;;;16.70;99.90;;;;;;4965104;28;20089;-67
2022/06/08 06:41:31;;;;;;;0.57;0.45;;;16.70;99.90;;;;;;4964957;28;20126;-68
2022/06/08 06:43:59;;;;;;;1.33;0.57;;;16.80;99.90;;;;;;4965162;28;20093;-68
2022/06/08 06:46:26;;;;;;;0.25;0.25;;;16.90;99.90;;;;;;4964558;28;20043;-68
2022/06/08 06:48:53;;;;;;;0.73;0.60;;;17.00;99.90;;;;;;4967525;28;20122;-69
2022/06/08 06:51:20;;;;;;;0.50;0.50;;;17.10;99.90;;;;;;4967125;28;20112;-68
2022/06/08 06:53:47;;;;;;;0.73;0.50;;;17.10;99.90;;;;;;4966881;28;20150;-68
2022/06/08 06:56:13;;;;;;;1.02;0.73;;;17.20;99.90;;;;;;4950408;28;20175;-68
2022/06/08 06:58:40;;;;;;;1.08;0.80;;;17.20;99.90;;;;;;4965273;28;20046;-68
2022/06/08 07:01:07;;;;;;;1.75;0.60;;;17.20;99.90;;;;;;4966368;28;20086;-68
2022/06/08 07:03:35;;;;;;;1.00;0.50;;;17.30;99.90;;;;;;4962456;28;20050;-68
2022/06/08 07:06:02;;;;;;;1.67;0.80;;;17.40;99.90;;;;;;4962587;28;20446;-68
2022/06/08 07:08:28;;;;;;;1.00;0.60;;;17.50;99.90;;;;;;4963514;28;20142;-68
2022/06/08 07:13:41;;;;;;;2.05;0.90;;;17.50;99.90;;;;;;4963665;28;20599;-68
2022/06/08 07:16:07;;;;;;;2.35;0.60;;;17.50;99.90;;;;;;4953789;28;20127;-68
2022/06/08 07:18:34;;;;;;;0.93;0.45;;;17.60;99.90;;;;;;4951693;28;20069;-68
2022/06/08 07:21:01;;;;;;;1.20;0.60;;;17.60;99.90;;;;;;4964857;28;20150;-69
2022/06/08 07:23:28;;;;;;;1.02;0.60;;;17.60;99.90;;;;;;5002254;28;20109;-69
2022/06/08 07:25:55;;;;;;;1.90;0.70;;;17.40;99.90;;;;;;4986588;28;20057;-79
2022/06/08 07:28:22;;;;;;;1.65;0.60;;;17.40;99.90;;;;;;4982954;28;20081;-66
2022/06/08 07:30:49;;;;;;;1.65;0.80;;;17.40;99.90;;;;;;4987663;28;20510;-66
2022/06/08 07:33:15;;;;;;;1.48;0.60;;;17.40;99.90;;;;;;4985174;28;20349;-67
2022/06/08 07:35:42;;;;;;;1.70;0.90;;;17.40;99.90;;;;;;4971361;28;20129;-66
2022/06/08 07:38:09;;;;;;;1.95;0.90;;;17.50;99.90;;;;;;5000242;28;20112;-77
2022/06/08 07:40:35;;;;;;;1.60;0.93;;;17.50;99.90;;;;;;4986820;28;20229;-66
2022/06/08 07:43:02;;;;;;;1.48;0.80;;;17.50;99.90;;;;;;5001124;28;20045;-66
2022/06/08 07:45:29;;;;;;;1.73;0.70;;;17.50;99.90;;;;;;5000625;28;20081;-66
2022/06/08 07:50:41;;;;;;;1.13;0.80;;;17.70;99.90;;;;;;5005365;28;20152;-66
2022/06/08 07:53:08;;;;;;;1.13;0.60;;;17.90;99.90;;;;;;4985892;28;20065;-66
2022/06/08 07:55:35;;;;;;;0.50;0.47;;;18.00;99.90;;;;;;4987691;28;20046;-66
2022/06/08 07:58:03;;;;;;;1.65;0.80;;;18.10;99.90;;;;;;5004516;28;20448;-65
2022/06/08 08:00:30;;;;;;;1.48;0.98;;;18.20;99.90;;;;;;4984982;28;20125;-73
2022/06/08 08:02:57;;;;;;;1.45;0.70;;;18.20;99.90;;;;;;4981707;28;20120;-70
2022/06/08 08:05:24;;;;;;;1.65;0.75;;;18.30;99.90;;;;;;4995873;28;20489;-66
2022/06/08 08:07:51;;;;;;;1.05;0.60;;;18.40;99.90;;;;;;4984909;28;20185;-66
2022/06/08 08:10:20;;;;;;;1.73;0.82;;;18.40;99.90;;;;;;4998247;28;20203;-66
2022/06/08 08:12:47;;;;;;;1.42;0.80;;;18.50;99.90;;;;;;4980023;28;20520;-66
2022/06/08 08:15:16;;;;;;;2.47;1.00;;;18.50;99.90;;;;;;4997195;28;20042;-66
2022/06/08 08:17:43;;;;;;;2.33;0.98;;;18.50;99.90;;;;;;4979960;28;20056;-75
2022/06/08 08:20:13;;;;;;;1.20;0.75;;;18.60;99.90;;;;;;4961804;28;20076;-66
2022/06/08 08:22:40;;;;;;;1.55;0.70;;;18.60;99.90;;;;;;4995156;28;20157;-73
2022/06/08 08:25:07;;;;;;;1.67;0.90;;;18.60;99.90;;;;;;4979106;28;20373;-66
2022/06/08 08:27:33;;;;;;;2.75;0.82;;;18.70;99.90;;;;;;4964685;28;20057;-66
2022/06/08 08:30:00;;;;;;;2.22;0.70;;;18.80;99.90;;;;;;4994084;28;20420;-72
2022/06/08 08:32:27;;;;;;;1.05;0.60;;;18.80;99.90;;;;;;4979844;28;20586;-66
2022/06/08 08:34:54;;;;;;;1.80;0.75;;;18.90;99.90;;;;;;4992969;28;20052;-66
2022/06/08 08:37:20;;;;;;;1.85;0.77;;;19.10;99.90;;;;;;4980417;28;20126;-67
2022/06/08 08:39:47;;;;;;;2.30;0.88;;;19.20;99.90;;;;;;4997823;28;20374;-66
2022/06/08 08:42:21;;;;;;;1.10;0.80;;;19.10;99.90;;;;;;4962968;28;20255;-67
2022/06/08 08:45:03;;;;;;;2.17;0.90;;;18.90;99.90;;;;;;4977153;28;20086;-71
2022/06/08 08:47:59;;;;;;;1.85;0.77;;;18.80;99.90;;;;;;4976298;28;20172;-74
2022/06/08 08:50:33;;;;;;;2.20;0.80;;;18.80;99.90;;;;;;4978429;28;20112;-65
2022/06/08 08:53:23;;;;;;;2.15;1.52;;;18.90;99.90;;;;;;4996684;28;20108;-68
2022/06/08 08:56:08;;;;;;;1.17;0.50;;;19.10;99.90;;;;;;5000371;28;20180;-65
2022/06/08 08:58:40;;;;;;;1.15;0.60;;;19.30;99.90;;;;;;5000109;28;20054;-65
2022/06/08 09:01:44;;;;;;;0.90;0.40;;;19.40;99.90;;;;;;4984023;28;20552;-65
2022/06/08 09:04:14;;;;;;;;;;;19.40;99.90;;;;;;4927464;29;20844;-64
2022/06/08 09:06:41;;;;;;;2.70;1.00;;;19.40;99.90;;;;;;4960863;28;20085;-73
2022/06/08 09:09:19;;;;;;;1.70;0.70;;;19.40;99.90;;;;;;4984389;28;20057;-69
2022/06/08 09:11:46;;;;;;;1.60;0.60;;;19.40;99.90;;;;;;4967721;28;20081;-75
2022/06/08 09:14:51;;;;;;;1.77;0.60;;;19.40;99.90;;;;;;4986164;28;20082;-77
2022/06/08 09:17:19;;;;;;;2.13;0.90;;;19.30;99.90;;;;;;4983544;28;20138;-79
2022/06/08 09:19:47;;;;;;;1.85;1.00;;;19.40;99.90;;;;;;4983703;28;20058;-68
2022/06/08 09:22:17;;;;;;;2.20;0.90;;;19.40;99.90;;;;;;5000125;28;20229;-65
2022/06/08 09:24:57;;;;;;;1.55;0.70;;;19.30;99.90;;;;;;5001882;28;20152;-65
2022/06/08 09:27:33;;;;;;;1.83;0.88;;;19.30;99.90;;;;;;5000910;28;20493;-66
2022/06/08 09:30:20;;;;;;;2.38;0.80;;;19.40;99.90;;;;;;5000212;28;20085;-69
2022/06/08 09:32:49;;;;;;;2.15;0.85;;;19.60;99.90;;;;;;5002323;28;20081;-71
2022/06/08 09:35:22;;;;;;;1.35;0.60;;;19.70;99.90;;;;;;4986653;28;20050;-68
2022/06/08 09:37:51;;;;;;;1.42;0.70;;;20.00;99.90;;;;;;5001499;28;20058;-71
2022/06/08 09:40:36;;;;;;;2.15;0.70;;;20.00;99.90;;;;;;5000795;28;20214;-67
2022/06/08 09:43:21;;;;;;;1.35;0.60;;;20.00;99.90;;;;;;4959388;28;20053;-66
2022/06/08 09:45:59;;;;;;;1.25;0.68;;;20.00;99.90;;;;;;4995769;28;20137;-66
2022/06/08 09:51:25;;;;;;;1.27;0.60;;;20.00;99.90;;;;;;4996225;28;20137;-67
2022/06/08 09:54:07;;;;;;;2.05;0.60;;;20.00;99.90;;;;;;4995824;28;20580;-67
2022/06/08 09:56:52;;;;;;;0.90;0.50;;;19.90;99.90;;;;;;4995696;28;20651;-67
2022/06/08 09:59:24;;;;;;;1.48;0.45;;;19.80;99.90;;;;;;4989654;28;21746;-67
2022/06/08 10:02:11;;;;;;;0.95;0.50;;;19.80;99.90;;;;;;4990674;28;20136;-67
2022/06/08 10:04:46;;;;;;;2.08;0.95;;;19.70;99.90;;;;;;4974226;28;20164;-84
2022/06/08 10:07:25;;;;;;;2.10;0.50;;;19.80;99.90;;;;;;4980337;28;20152;-75
2022/06/08 10:10:21;;;;;;;1.10;0.57;;;19.90;99.90;;;;;;4962684;28;20489;-66
2022/06/08 10:12:58;;;;;;;0.95;0.50;;;20.00;99.90;;;;;;4984303;28;20141;-66
2022/06/08 10:15:39;;;;;;;1.10;0.60;;;20.10;99.90;;;;;;4980737;28;20061;-66
2022/06/08 10:18:21;;;;;;;0.80;0.52;;;20.00;99.90;;;;;;4966831;28;20136;-66
2022/06/08 10:21:12;;;;;;;0.93;0.50;;;20.00;99.90;;;;;;5000213;28;20176;-66
2022/06/08 10:23:59;;;;;;;0.50;0.40;;;20.00;99.90;;;;;;4982181;28;20262;-66
2022/06/08 10:26:52;;;;;;;1.23;0.40;;;20.00;99.90;;;;;;4964811;28;20151;-67
2022/06/08 10:29:32;;;;;;;1.27;0.40;;;20.20;99.90;;;;;;4969721;28;20144;-66
2022/06/08 10:32:23;;;;;;;1.00;0.47;;;20.40;99.90;;;;;;4979509;28;20143;-66
2022/06/08 10:34:54;;;;;;;1.10;0.60;;;20.60;99.90;;;;;;4980469;28;20500;-66
2022/06/08 10:37:38;;;;;;;1.40;0.60;;;20.60;99.90;;;;;;4982845;28;20090;-66
2022/06/08 10:40:09;;;;;;;0.85;0.45;;;20.60;99.90;;;;;;4981857;28;20136;-67
2022/06/08 10:42:40;;;;;;;0.43;0.20;;;20.50;99.90;;;;;;4980928;28;20049;-66
2022/06/08 10:45:35;;;;;;;1.80;0.47;;;20.30;99.90;;;;;;4982054;28;20053;-66
2022/06/08 10:48:11;;;;;;;1.27;0.50;;;20.00;99.90;;;;;;4976445;28;20133;-66
2022/06/08 10:50:47;;;;;;;1.23;0.57;;;19.80;99.90;;;;;;4999127;28;20283;-66
2022/06/08 10:56:34;;;;;;;1.98;0.90;;;19.60;99.90;;;;;;4989046;28;20060;-66
2022/06/08 10:59:04;;;;;;;1.65;0.60;;;19.60;99.90;;;;;;5000621;28;20111;-66
2022/06/08 11:01:52;;;;;;;1.25;0.57;;;19.50;99.90;;;;;;4983358;28;20560;-66
2022/06/08 11:04:31;;;;;;;0.70;0.35;;;19.60;99.90;;;;;;4984144;28;20053;-65
2022/06/08 11:07:07;;;;;;;1.27;0.40;;;19.70;99.90;;;;;;5002752;28;20077;-67
2022/06/08 11:09:34;;;;;;;1.90;0.68;;;19.70;99.90;;;;;;4984655;28;20077;-66
2022/06/08 11:12:10;;;;;;;2.67;0.63;;;19.90;99.90;;;;;;5001869;28;20057;-67
2022/06/08 11:14:43;;;;;;;0.50;0.40;;;20.00;99.90;;;;;;4977081;28;20521;-67
2022/06/08 11:17:23;;;;;;;1.67;0.60;;;20.40;99.90;;;;;;4999126;28;20136;-67
2022/06/08 11:19:53;;;;;;;1.33;0.32;;;20.60;99.90;;;;;;4985663;28;20472;-67
2022/06/08 11:22:29;;;;;;;0.77;0.60;;;20.70;99.90;;;;;;4986349;28;20085;-67
2022/06/08 11:24:58;;;;;;;0.77;0.47;;;20.60;99.90;;;;;;4973983;28;20133;-67
2022/06/08 11:27:33;;;;;;;2.67;0.60;;;20.40;99.90;;;;;;4977513;28;20517;-67
2022/06/08 11:30:19;;;;;;;0.75;0.50;;;20.10;99.90;;;;;;4979625;28;20631;-67
2022/06/08 11:32:52;;;;;;;1.23;0.60;;;20.20;99.90;;;;;;4987303;28;20088;-67
2022/06/08 11:35:42;;;;;;;;;;;20.30;99.90;;;;;;5003950;28;20149;-67
2022/06/08 11:38:34;;;;;;;1.13;0.40;;;20.30;99.90;;;;;;4964254;28;20024;-67
2022/06/08 11:41:20;;;;;;;0.43;0.30;;;20.50;99.90;;;;;;4964873;28;20484;-67
2022/06/08 11:43:53;;;;;;;0.68;0.40;;;20.90;99.90;;;;;;4976014;28;20280;-66
2022/06/08 11:46:25;;;;;;;1.38;0.35;;;21.00;99.90;;;;;;4997319;28;20046;-76
2022/06/08 11:48:54;;;;;;;0.65;0.43;;;20.90;99.90;;;;;;4968436;28;20136;-71
2022/06/08 11:51:29;;;;;;;0.52;0.43;;;20.80;99.90;;;;;;4980088;28;20145;-66
2022/06/08 11:53:58;;;;;;;1.02;0.50;;;20.80;99.90;;;;;;4979559;28;20060;-72
2022/06/08 11:56:36;;;;;;;1.27;0.70;;;20.90;99.90;;;;;;4980047;28;20357;-66
2022/06/08 11:59:04;;;;;;;0.55;0.40;;;21.20;99.90;;;;;;4983655;28;20600;-66
2022/06/08 12:01:49;;;;;;;0.85;0.38;;;21.20;99.90;;;;;;4984864;28;20065;-69
2022/06/08 12:04:19;;;;;;;1.02;0.50;;;21.60;99.90;;;;;;4982972;28;20325;-71
2022/06/08 12:06:46;;;;;;;0.57;0.30;;;21.60;99.90;;;;;;4969681;28;20050;-66
2022/06/08 12:09:40;;;;;;;0.68;0.40;;;21.90;99.90;;;;;;4986605;28;20073;-66
2022/06/08 12:12:18;;;;;;;1.65;0.50;;;22.10;99.90;;;;;;4980014;28;20556;-66
2022/06/08 12:14:45;;;;;;;1.05;0.40;;;22.40;99.90;;;;;;4970248;28;20084;-66
2022/06/08 12:17:12;;;;;;;1.35;0.57;;;22.40;99.90;;;;;;5002293;28;20129;-67
2022/06/08 12:19:54;;;;;;;1.08;0.38;;;22.70;99.90;;;;;;5004457;28;20452;-66
2022/06/08 12:22:29;;;;;;;1.53;0.70;;;22.50;99.90;;;;;;4985139;28;20132;-66
2022/06/08 12:25:24;;;;;;;2.60;0.65;;;22.10;99.90;;;;;;4984345;28;20763;-66
2022/06/08 12:27:58;;;;;;;2.00;0.70;;;21.90;99.90;;;;;;4982333;28;20085;-65
2022/06/08 12:30:34;;;;;;;1.42;0.50;;;21.70;99.90;;;;;;4998254;28;20057;-65
2022/06/08 12:33:29;;;;;;;1.60;0.55;;;21.60;99.90;;;;;;4998415;28;20141;-66
2022/06/08 12:36:00;;;;;;;1.20;0.50;;;21.40;99.90;;;;;;4990640;28;20417;-66
2022/06/08 12:38:31;;;;;;;1.85;0.75;;;21.50;99.90;;;;;;4963443;28;20042;-66
2022/06/08 12:41:07;;;;;;;2.25;0.80;;;22.10;99.90;;;;;;4980772;28;20050;-66
2022/06/08 12:43:48;;;;;;;1.48;0.63;;;22.20;99.90;;;;;;4984237;28;20042;-65
2022/06/08 12:46:25;;;;;;;1.13;0.40;;;22.10;99.90;;;;;;4962325;28;20052;-66
2022/06/08 12:48:55;;;;;;;2.03;0.75;;;22.00;99.90;;;;;;5003034;28;20050;-66
2022/06/08 12:51:34;;;;;;;1.27;0.60;;;22.10;99.90;;;;;;4998489;28;20144;-66
2022/06/08 12:54:14;;;;;;;0.82;0.45;;;22.10;99.90;;;;;;4980684;28;20231;-80
2022/06/08 12:56:43;;;;;;;1.17;0.52;;;22.40;99.90;;;;;;4967785;28;20109;-66
2022/06/08 12:59:11;;;;;;;1.00;0.50;;;23.30;99.90;;;;;;5002204;28;20153;-66
2022/06/08 13:01:39;;;;;;;2.42;0.57;;;24.00;98.60;;;;;;4985487;28;20180;-82
2022/06/08 13:04:06;;;;;;;1.35;0.57;;;24.60;98.50;;;;;;4985172;28;20149;-67
2022/06/08 13:06:33;;;;;;;1.05;0.40;;;24.90;98.10;;;;;;4984333;28;20069;-66
2022/06/08 13:09:00;;;;;;;1.20;0.40;;;24.30;97.70;;;;;;5004070;28;20093;-66
2022/06/08 13:11:26;;;;;;;1.35;0.60;;;24.60;96.70;;;;;;5004281;28;20129;-66
2022/06/08 13:13:55;;;;;;;1.13;0.50;;;25.00;96.10;;;;;;4983951;28;20061;-66
2022/06/08 13:16:25;;;;;;;0.88;0.60;;;25.40;95.20;;;;;;4983892;28;20053;-66
2022/06/08 13:18:52;;;;;;;1.08;0.55;;;25.70;94.70;;;;;;4982949;28;20066;-66
2022/06/08 14:28:22;;;;;;;1.23;0.70;;;24.40;90.90;;;;;;4901716;29;20059;-82
2022/06/08 14:30:52;;;;;;;1.50;0.70;;;23.90;90.70;;;;;;4890103;29;20503;-67
2022/06/08 14:33:25;;;;;;;1.55;0.85;;;23.60;91.00;;;;;;4901983;29;20063;-73
2022/06/08 14:35:52;;;;;;;1.20;0.60;;;23.00;91.00;;;;;;4911075;29;20155;-72